Time;durP1;ratioP1;P1;durP2;ratioP2;P2;SDS_P1;SDS_P2;PMS_P1;PMS_P2;Temp;Humidity;BMP_temperature;BMP_pressure;BME280_temperature;BME280_humidity;BME280_pressure;Samples;Min_cycle;Max_cycle;Signal;HPM_P1;HPM_P2
2023/04/24 00:00:05;;;;;;;11.80;7.00;;;;;;;8.19;100.00;100803.17;110439;1235;70230;-67
2023/04/24 00:02:56;;;;;;;8.80;6.50;;;;;;;8.15;100.00;100802.91;110297;1236;65061;-68
2023/04/24 00:05:26;;;;;;;14.80;6.50;;;;;;;8.13;100.00;100797.83;110368;1238;58132;-69
2023/04/24 00:07:55;;;;;;;10.70;6.80;;;;;;;8.11;100.00;100800.55;110272;1234;58369;-68
2023/04/24 00:10:24;;;;;;;9.00;6.50;;;;;;;8.07;100.00;100798.88;110420;1234;73535;-68
2023/04/24 00:12:53;;;;;;;10.30;6.50;;;;;;;8.02;100.00;100799.33;110275;1235;72497;-68
2023/04/24 00:15:21;;;;;;;7.60;6.30;;;;;;;7.94;100.00;100794.98;110262;1235;71623;-67
2023/04/24 00:17:51;;;;;;;8.80;6.40;;;;;;;7.88;100.00;100793.59;110278;1234;62443;-68
2023/04/24 00:20:21;;;;;;;9.80;6.80;;;;;;;7.83;100.00;100789.73;110248;1235;58344;-67
2023/04/24 00:22:49;;;;;;;9.90;6.70;;;;;;;7.76;100.00;100789.45;110192;1235;61063;-67
2023/04/24 00:25:18;;;;;;;12.10;6.80;;;;;;;7.71;100.00;100785.77;110282;1235;63881;-67
2023/04/24 00:27:47;;;;;;;11.80;7.70;;;;;;;7.65;100.00;100786.85;110175;1235;71950;-67
2023/04/24 00:30:16;;;;;;;10.30;6.80;;;;;;;7.60;100.00;100788.87;110242;1234;70020;-67
2023/04/24 00:32:44;;;;;;;7.90;6.30;;;;;;;7.54;100.00;100782.79;110221;1233;72403;-67
2023/04/24 00:35:14;;;;;;;9.30;6.60;;;;;;;7.49;100.00;100781.70;110146;1236;58570;-68
2023/04/24 00:37:43;;;;;;;11.30;7.50;;;;;;;7.43;100.00;100781.34;110349;1236;58356;-68
2023/04/24 00:40:12;;;;;;;12.00;7.20;;;;;;;7.39;100.00;100781.58;110421;1236;63690;-67
2023/04/24 00:42:43;;;;;;;10.50;7.50;;;;;;;7.34;100.00;100783.09;110342;1239;61592;-67
2023/04/24 00:45:12;;;;;;;10.40;7.20;;;;;;;7.29;100.00;100778.16;110283;1239;60150;-67
2023/04/24 00:47:42;;;;;;;9.80;6.70;;;;;;;7.25;100.00;100776.13;110423;1236;63211;-66
2023/04/24 00:50:13;;;;;;;12.00;7.30;;;;;;;7.22;100.00;100776.52;110280;1235;57709;-67
2023/04/24 00:52:42;;;;;;;11.10;7.10;;;;;;;7.19;100.00;100777.55;110339;1234;61298;-66
2023/04/24 00:55:10;;;;;;;11.60;7.10;;;;;;;7.15;100.00;100775.33;110330;1235;73771;-67
2023/04/24 00:57:39;;;;;;;12.20;7.50;;;;;;;7.11;100.00;100775.56;110192;1235;62682;-67
2023/04/24 01:00:12;;;;;;;10.00;7.00;;;;;;;7.08;100.00;100780.77;110352;1235;60468;-68
2023/04/24 01:02:44;;;;;;;10.10;7.10;;;;;;;7.03;100.00;100779.34;110263;1239;63252;-68
2023/04/24 01:05:15;;;;;;;10.60;6.60;;;;;;;6.99;100.00;100780.92;110277;1238;61362;-68
2023/04/24 01:07:47;;;;;;;13.70;7.90;;;;;;;6.96;100.00;100783.67;110189;1235;61526;-67
2023/04/24 01:10:17;;;;;;;11.40;7.00;;;;;;;6.92;100.00;100779.05;110291;1234;73972;-68
2023/04/24 01:12:47;;;;;;;9.40;7.20;;;;;;;6.89;100.00;100778.55;110355;1235;63880;-68
2023/04/24 01:15:15;;;;;;;14.10;7.10;;;;;;;6.86;100.00;100773.54;110316;1235;70886;-66
2023/04/24 01:17:44;;;;;;;9.40;6.70;;;;;;;6.82;100.00;100771.48;110358;1238;63606;-67
2023/04/24 01:20:16;;;;;;;11.70;7.00;;;;;;;6.78;100.00;100765.97;110423;1236;62036;-68
2023/04/24 01:22:45;;;;;;;8.60;6.90;;;;;;;6.76;100.00;100765.92;110205;1235;61458;-67
2023/04/24 01:25:14;;;;;;;10.30;7.40;;;;;;;6.74;100.00;100766.94;109975;1235;75516;-68
2023/04/24 01:27:43;;;;;;;10.60;6.90;;;;;;;6.71;100.00;100764.14;110251;1235;72678;-66
2023/04/24 01:30:13;;;;;;;10.30;7.50;;;;;;;6.68;100.00;100760.66;110371;1236;60464;-68
2023/04/24 01:32:44;;;;;;;12.40;7.10;;;;;;;6.67;100.00;100759.02;110247;1239;73594;-67
2023/04/24 01:35:13;;;;;;;11.20;7.60;;;;;;;6.65;100.00;100757.73;110190;1239;57687;-67
2023/04/24 01:37:42;;;;;;;12.50;7.00;;;;;;;6.62;100.00;100750.09;110410;1234;58362;-66
2023/04/24 01:40:11;;;;;;;11.50;7.00;;;;;;;6.59;100.00;100746.59;110416;1235;74319;-65
2023/04/24 01:42:41;;;;;;;10.20;6.60;;;;;;;6.57;100.00;100747.55;110300;1234;73229;-67
2023/04/24 01:45:12;;;;;;;10.60;7.40;;;;;;;6.56;100.00;100741.95;110412;1236;59544;-66
2023/04/24 01:47:41;;;;;;;11.70;7.00;;;;;;;6.53;100.00;100741.58;110321;1239;63266;-67
2023/04/24 01:50:11;;;;;;;10.80;7.30;;;;;;;6.50;100.00;100740.02;110402;1236;58254;-67
2023/04/24 01:52:40;;;;;;;9.20;7.20;;;;;;;6.47;100.00;100742.95;110178;1235;60635;-68
2023/04/24 01:55:10;;;;;;;10.30;6.90;;;;;;;6.46;100.00;100739.41;110436;1236;63479;-68
2023/04/24 01:57:40;;;;;;;9.80;7.40;;;;;;;6.44;100.00;100733.78;110331;1237;60885;-68
2023/04/24 02:00:11;;;;;;;11.50;7.70;;;;;;;6.44;100.00;100730.83;110088;1234;69699;-68
2023/04/24 02:02:42;;;;;;;13.10;8.60;;;;;;;6.42;100.00;100727.17;110294;1239;62923;-68
2023/04/24 02:05:15;;;;;;;12.10;7.60;;;;;;;6.39;100.00;100721.40;110353;1239;61833;-69
2023/04/24 02:07:44;;;;;;;9.40;6.80;;;;;;;6.37;100.00;100717.92;110332;1238;58481;-67
2023/04/24 02:10:13;;;;;;;9.60;6.70;;;;;;;6.35;100.00;100717.16;110329;1235;74424;-67
2023/04/24 02:12:44;;;;;;;11.20;6.90;;;;;;;6.32;100.00;100714.53;110190;1239;61964;-68
2023/04/24 02:15:13;;;;;;;10.20;7.20;;;;;;;6.31;100.00;100710.10;110230;1235;70034;-68
2023/04/24 02:17:41;;;;;;;9.70;7.30;;;;;;;6.32;100.00;100711.95;110274;1235;74772;-68
2023/04/24 02:20:10;;;;;;;11.00;7.30;;;;;;;6.35;100.00;100710.75;110265;1233;63021;-68
2023/04/24 02:22:39;;;;;;;9.80;7.60;;;;;;;6.39;100.00;100715.36;110220;1235;58226;-68
2023/04/24 02:25:08;;;;;;;13.30;8.20;;;;;;;6.45;100.00;100712.30;110371;1235;63780;-68
2023/04/24 02:27:37;;;;;;;10.70;7.30;;;;;;;6.49;100.00;100712.39;110339;1239;60644;-68
2023/04/24 02:30:08;;;;;;;13.50;7.70;;;;;;;6.54;100.00;100712.15;110264;1235;68636;-68
2023/04/24 02:32:36;;;;;;;13.80;8.20;;;;;;;6.58;100.00;100714.83;110352;1235;74533;-68
2023/04/24 02:35:06;;;;;;;13.40;7.60;;;;;;;6.62;100.00;100717.75;110362;1237;63317;-67
2023/04/24 02:37:35;;;;;;;15.20;8.50;;;;;;;6.70;100.00;100710.70;110386;1234;59641;-68
2023/04/24 02:40:05;;;;;;;12.40;8.10;;;;;;;6.75;100.00;100713.58;110410;1235;62973;-67
2023/04/24 02:42:34;;;;;;;14.10;8.10;;;;;;;6.79;100.00;100713.48;110412;1235;60936;-68
2023/04/24 02:45:04;;;;;;;16.00;8.90;;;;;;;6.83;100.00;100714.09;110469;1235;60012;-67
2023/04/24 02:47:33;;;;;;;14.70;8.40;;;;;;;6.89;100.00;100711.88;110408;1236;73012;-68
2023/04/24 02:50:03;;;;;;;12.30;7.80;;;;;;;6.92;100.00;100711.88;110367;1237;63886;-67
2023/04/24 02:52:32;;;;;;;14.20;8.40;;;;;;;6.99;100.00;100710.98;110376;1235;58262;-68
2023/04/24 02:55:01;;;;;;;10.20;7.60;;;;;;;7.04;100.00;100712.94;110319;1233;74385;-67
2023/04/24 02:57:30;;;;;;;12.10;8.10;;;;;;;7.06;100.00;100712.50;110357;1235;61737;-67
2023/04/24 02:59:59;;;;;;;12.60;7.50;;;;;;;7.09;100.00;100711.95;110249;1235;70398;-68
2023/04/24 03:02:28;;;;;;;16.00;9.00;;;;;;;7.15;100.00;100708.27;110191;1235;62645;-67
2023/04/24 03:04:57;;;;;;;12.00;8.20;;;;;;;7.16;100.00;100708.92;110323;1235;61856;-67
2023/04/24 03:07:27;;;;;;;10.30;7.60;;;;;;;7.18;100.00;100710.70;110315;1238;61678;-68
2023/04/24 03:09:57;;;;;;;11.50;6.90;;;;;;;7.19;100.00;100710.35;110213;1236;66410;-67
2023/04/24 03:12:27;;;;;;;12.70;7.40;;;;;;;7.19;100.00;100711.17;110306;1235;63167;-68
2023/04/24 03:14:56;;;;;;;14.80;8.40;;;;;;;7.23;100.00;100709.26;110277;1235;59229;-68
2023/04/24 03:17:25;;;;;;;12.90;7.90;;;;;;;7.29;100.00;100710.28;110205;1235;62522;-68
2023/04/24 03:19:54;;;;;;;13.70;8.10;;;;;;;7.32;100.00;100709.96;110230;1238;57704;-68
2023/04/24 03:22:23;;;;;;;13.50;7.80;;;;;;;7.36;100.00;100712.27;110211;1235;57763;-68
2023/04/24 03:24:54;;;;;;;17.20;8.00;;;;;;;7.44;100.00;100715.95;110227;1234;63753;-68
2023/04/24 03:27:23;;;;;;;10.50;7.60;;;;;;;7.46;100.00;100717.59;110195;1234;61028;-68
2023/04/24 03:29:56;;;;;;;13.90;7.80;;;;;;;7.49;100.00;100721.57;110172;1235;69656;-68
2023/04/24 03:32:34;;;;;;;20.00;8.90;;;;;;;7.52;100.00;100720.89;110217;1234;73712;-68
2023/04/24 03:35:03;;;;;;;13.90;7.40;;;;;;;7.58;100.00;100724.66;110238;1235;62466;-68
2023/04/24 03:37:32;;;;;;;15.80;8.00;;;;;;;7.61;100.00;100723.65;110273;1235;59470;-68
2023/04/24 03:40:13;;;;;;;14.30;8.30;;;;;;;7.65;100.00;100723.58;110321;1235;63829;-67
2023/04/24 03:42:42;;;;;;;21.40;8.00;;;;;;;7.68;100.00;100725.10;110339;1235;60971;-67
2023/04/24 03:45:12;;;;;;;11.90;7.70;;;;;;;7.73;100.00;100723.10;110117;1235;69709;-68
2023/04/24 03:47:41;;;;;;;14.20;8.30;;;;;;;7.85;100.00;100728.11;110161;1239;73687;-68
2023/04/24 03:50:10;;;;;;;23.10;12.90;;;;;;;7.96;100.00;100727.39;110335;1235;62470;-68
2023/04/24 03:52:41;;;;;;;13.70;7.60;;;;;;;8.03;100.00;100731.80;110299;1234;58263;-68
2023/04/24 03:55:12;;;;;;;13.60;8.30;;;;;;;8.10;100.00;100733.84;110256;1235;64120;-68
2023/04/24 03:57:45;;;;;;;13.20;7.90;;;;;;;8.16;100.00;100738.82;110288;1234;71801;-70
2023/04/24 04:00:21;;;;;;;15.50;8.60;;;;;;;8.21;100.00;100735.73;110241;1235;70124;-69
2023/04/24 04:02:53;;;;;;;;;;;;;;;8.26;100.00;100738.71;110211;1238;74417;-67
2023/04/24 04:05:23;;;;;;;14.80;9.60;;;;;;;8.29;100.00;100737.51;110208;1238;62298;-69
2023/04/24 04:07:52;;;;;;;13.90;7.70;;;;;;;8.35;100.00;100737.33;110239;1235;61027;-69
2023/04/24 04:10:21;;;;;;;12.60;8.10;;;;;;;8.39;100.00;100739.02;109960;1235;74875;-68
2023/04/24 04:12:50;;;;;;;15.60;8.20;;;;;;;8.44;100.00;100732.11;110205;1238;72660;-69
2023/04/24 04:15:19;;;;;;;10.90;7.60;;;;;;;8.47;100.00;100734.64;110194;1235;69587;-67
2023/04/24 04:17:49;;;;;;;14.70;8.10;;;;;;;8.52;100.00;100733.64;110067;1238;75082;-67
2023/04/24 04:20:18;;;;;;;16.00;9.00;;;;;;;8.59;100.00;100735.65;110089;1238;61221;-69
2023/04/24 04:22:47;;;;;;;13.60;8.40;;;;;;;8.69;100.00;100739.13;110000;1235;60899;-68
2023/04/24 04:25:19;;;;;;;13.40;8.70;;;;;;;8.77;100.00;100735.69;110277;1235;64799;-68
2023/04/24 04:27:48;;;;;;;13.10;7.80;;;;;;;8.83;100.00;100734.48;110244;1235;62518;-68
2023/04/24 04:30:17;;;;;;;13.90;8.20;;;;;;;8.90;100.00;100733.48;110233;1235;60041;-68
2023/04/24 04:32:55;;;;;;;13.40;7.90;;;;;;;8.98;100.00;100736.41;110158;1234;62495;-67
2023/04/24 04:35:24;;;;;;;14.80;7.80;;;;;;;9.06;100.00;100738.66;110281;1238;62990;-68
2023/04/24 04:37:54;;;;;;;12.30;7.90;;;;;;;9.15;100.00;100738.48;110239;1235;60892;-67
2023/04/24 04:40:33;;;;;;;12.70;8.00;;;;;;;9.22;100.00;100741.61;110293;1235;74850;-72
2023/04/24 04:43:05;;;;;;;12.20;7.80;;;;;;;9.33;100.00;100737.92;110273;1235;72877;-68
2023/04/24 04:45:42;;;;;;;13.70;8.30;;;;;;;9.42;100.00;100738.21;110297;1235;61681;-68
2023/04/24 04:48:24;;;;;;;;;;;;;;;9.55;100.00;100737.52;110287;1235;73920;-68
2023/04/24 04:50:53;;;;;;;13.70;7.60;;;;;;;9.62;100.00;100735.98;109974;1235;58180;-68
2023/04/24 04:53:22;;;;;;;15.90;8.60;;;;;;;9.71;100.00;100740.06;110274;1235;60234;-68
2023/04/24 04:55:52;;;;;;;12.50;7.80;;;;;;;9.78;100.00;100740.41;110331;1234;64271;-67
2023/04/24 04:58:25;;;;;;;;;;;;;;;9.87;100.00;100738.42;110295;1235;62147;-67
2023/04/24 05:00:57;;;;;;;13.60;7.60;;;;;;;9.96;100.00;100738.16;110306;1234;69262;-83
2023/04/24 05:03:29;;;;;;;16.00;8.20;;;;;;;10.05;100.00;100735.66;110311;1235;63624;-74
2023/04/24 05:06:06;;;;;;;18.00;7.90;;;;;;;10.17;100.00;100738.48;110209;1238;60791;-74
2023/04/24 05:08:37;;;;;;;13.30;7.70;;;;;;;10.28;100.00;100738.23;110078;1234;61305;-74
2023/04/24 05:11:08;;;;;;;12.70;8.50;;;;;;;10.36;100.00;100740.28;110214;1233;64221;-73
2023/04/24 05:13:38;;;;;;;13.30;7.90;;;;;;;10.44;100.00;100740.60;110271;1237;72252;-75
2023/04/24 05:16:13;;;;;;;12.90;7.60;;;;;;;10.49;100.00;100740.25;110314;1234;59840;-74
2023/04/24 05:18:42;;;;;;;12.30;7.70;;;;;;;10.50;100.00;100737.50;110313;1235;63325;-74
2023/04/24 05:21:13;;;;;;;12.30;8.10;;;;;;;10.57;100.00;100742.78;110318;1237;58275;-74
2023/04/24 05:23:43;;;;;;;14.90;8.00;;;;;;;10.63;100.00;100742.89;110107;1238;58214;-74
2023/04/24 05:26:15;;;;;;;10.40;7.50;;;;;;;10.74;100.00;100740.70;110320;1234;64500;-74
2023/04/24 05:28:44;;;;;;;26.70;9.80;;;;;;;10.84;100.00;100742.04;110270;1235;71837;-70
2023/04/24 05:31:13;;;;;;;16.60;8.20;;;;;;;10.91;100.00;100742.73;110157;1234;60426;-70
2023/04/24 05:33:42;;;;;;;14.60;7.90;;;;;;;10.99;100.00;100742.31;110176;1235;63488;-71
2023/04/24 05:36:11;;;;;;;24.50;8.70;;;;;;;11.16;100.00;100742.48;109930;1235;58446;-69
2023/04/24 05:38:40;;;;;;;19.80;10.10;;;;;;;11.29;100.00;100743.23;110056;1236;57985;-70
2023/04/24 05:41:09;;;;;;;12.20;7.90;;;;;;;11.39;100.00;100741.77;110093;1234;63763;-70
2023/04/24 05:43:38;;;;;;;20.30;8.60;;;;;;;11.50;100.00;100735.62;110214;1233;61952;-69
2023/04/24 05:46:07;;;;;;;17.20;9.00;;;;;;;11.63;99.98;100735.23;110003;1235;59254;-69
2023/04/24 05:48:36;;;;;;;15.60;8.40;;;;;;;11.76;99.45;100735.30;110135;1234;63391;-71
2023/04/24 05:51:05;;;;;;;15.40;7.90;;;;;;;11.85;98.18;100731.00;110155;1234;58296;-71
2023/04/24 05:53:35;;;;;;;14.90;8.00;;;;;;;11.89;97.79;100731.05;110248;1234;60426;-70
2023/04/24 05:56:04;;;;;;;12.80;7.90;;;;;;;12.03;98.02;100734.16;110306;1234;75216;-70
2023/04/24 05:58:33;;;;;;;14.30;7.70;;;;;;;12.13;97.91;100728.98;110272;1235;61829;-70
2023/04/24 06:01:03;;;;;;;13.00;8.20;;;;;;;12.23;97.32;100727.48;110166;1235;59998;-70
2023/04/24 06:03:32;;;;;;;16.10;9.00;;;;;;;12.35;96.27;100728.14;110133;1236;72972;-70
2023/04/24 06:06:04;;;;;;;12.60;7.70;;;;;;;12.47;95.95;100724.54;110180;1238;61560;-69
2023/04/24 06:08:35;;;;;;;14.90;8.00;;;;;;;12.56;95.54;100721.02;110188;1235;61556;-71
2023/04/24 06:11:04;;;;;;;14.90;8.40;;;;;;;12.70;95.74;100718.49;110190;1234;74149;-69
2023/04/24 06:13:33;;;;;;;12.30;8.20;;;;;;;12.77;94.79;100717.54;110154;1235;72622;-70
2023/04/24 06:16:20;;;;;;;16.90;8.10;;;;;;;12.87;94.22;100716.23;110445;1234;59581;-70
2023/04/24 06:18:55;;;;;;;12.60;8.50;;;;;;;12.91;93.20;100720.41;110364;1237;62502;-69
2023/04/24 06:21:24;;;;;;;12.70;8.40;;;;;;;13.03;93.96;100722.23;110362;1235;58343;-70
2023/04/24 06:23:55;;;;;;;11.80;7.50;;;;;;;13.18;93.21;100720.33;110394;1235;57797;-70
2023/04/24 06:26:26;;;;;;;14.80;8.60;;;;;;;13.34;91.66;100723.05;110406;1234;73614;-71
2023/04/24 06:28:55;;;;;;;9.70;7.10;;;;;;;13.40;91.56;100726.02;110384;1234;72814;-70
2023/04/24 06:31:24;;;;;;;14.10;8.30;;;;;;;13.49;91.93;100721.75;110492;1234;70747;-69
2023/04/24 06:33:53;;;;;;;14.80;7.60;;;;;;;13.60;92.20;100722.80;110377;1237;72846;-69
2023/04/24 06:36:22;;;;;;;14.30;8.20;;;;;;;13.71;91.84;100726.06;110353;1237;61190;-69
2023/04/24 06:38:51;;;;;;;17.60;8.20;;;;;;;13.65;91.63;100723.55;110507;1235;58235;-69
2023/04/24 06:41:20;;;;;;;13.70;7.60;;;;;;;13.72;92.52;100726.27;110546;1235;62989;-70
2023/04/24 06:43:49;;;;;;;13.10;8.20;;;;;;;13.90;92.24;100727.87;110518;1235;72694;-70
2023/04/24 06:46:18;;;;;;;12.00;8.40;;;;;;;14.05;91.22;100725.16;110485;1234;70787;-70
2023/04/24 06:48:47;;;;;;;12.20;7.90;;;;;;;14.09;89.74;100721.19;110442;1234;74793;-70
2023/04/24 06:51:17;;;;;;;15.90;8.90;;;;;;;14.26;90.96;100717.77;110445;1234;61670;-70
2023/04/24 06:53:46;;;;;;;14.50;8.10;;;;;;;14.39;90.01;100715.39;110415;1235;58297;-70
2023/04/24 06:56:17;;;;;;;11.80;8.30;;;;;;;14.54;88.48;100711.60;110452;1234;74354;-69
2023/04/24 06:58:46;;;;;;;14.00;7.90;;;;;;;14.51;87.74;100713.45;110403;1235;72561;-70
2023/04/24 07:01:15;;;;;;;12.40;7.20;;;;;;;14.62;87.20;100712.88;110453;1233;59557;-70
2023/04/24 07:03:44;;;;;;;9.80;7.00;;;;;;;14.71;86.47;100709.98;110451;1234;62462;-69
2023/04/24 07:06:14;;;;;;;8.50;6.50;;;;;;;14.86;82.37;100709.88;110429;1235;58352;-70
2023/04/24 07:08:43;;;;;;;12.80;6.40;;;;;;;15.02;79.58;100707.63;110460;1233;61353;-71
2023/04/24 07:11:12;;;;;;;12.60;7.10;;;;;;;15.14;77.88;100704.98;110507;1235;64174;-70
2023/04/24 07:13:44;;;;;;;16.60;7.00;;;;;;;15.18;76.69;100702.92;110523;1235;60879;-69
2023/04/24 07:16:13;;;;;;;12.00;6.70;;;;;;;15.28;77.18;100701.44;110467;1233;71087;-70
2023/04/24 07:18:42;;;;;;;12.80;5.90;;;;;;;15.39;74.41;100695.13;110387;1234;73151;-70
2023/04/24 07:21:11;;;;;;;9.00;5.90;;;;;;;15.44;73.01;100696.45;110407;1236;60865;-70
2023/04/24 07:23:41;;;;;;;7.80;5.50;;;;;;;15.54;73.03;100697.79;110436;1234;60529;-71
2023/04/24 07:26:10;;;;;;;9.10;4.70;;;;;;;15.60;71.77;100697.88;110448;1234;64318;-70
2023/04/24 07:28:39;;;;;;;9.40;6.40;;;;;;;15.75;69.71;100695.97;110439;1235;61815;-70
2023/04/24 07:31:08;;;;;;;10.80;5.80;;;;;;;15.86;60.37;100697.39;110448;1235;67056;-70
2023/04/24 07:33:38;;;;;;;8.60;5.40;;;;;;;15.74;59.16;100686.80;110388;1236;63267;-71
2023/04/24 07:36:07;;;;;;;10.50;5.70;;;;;;;15.86;59.12;100693.54;110395;1234;60654;-70
2023/04/24 07:38:36;;;;;;;9.90;6.20;;;;;;;16.10;57.95;100694.98;110300;1234;61748;-70
2023/04/24 07:41:04;;;;;;;9.40;5.50;;;;;;;16.03;57.25;100694.02;110355;1234;74175;-70
2023/04/24 07:43:34;;;;;;;11.70;5.30;;;;;;;16.27;57.80;100689.84;110453;1234;70953;-71
2023/04/24 07:46:03;;;;;;;9.00;5.40;;;;;;;16.48;56.96;100689.33;110378;1234;62080;-72
2023/04/24 07:48:36;;;;;;;11.90;6.80;;;;;;;16.39;55.60;100681.77;110451;1235;72952;-70
2023/04/24 07:51:05;;;;;;;8.80;5.50;;;;;;;16.51;55.47;100688.67;110171;1238;58263;-70
2023/04/24 07:53:34;;;;;;;8.90;5.60;;;;;;;16.58;55.44;100682.55;110458;1236;58207;-70
2023/04/24 07:56:04;;;;;;;9.90;5.40;;;;;;;16.62;55.27;100679.55;110481;1235;63730;-71
2023/04/24 07:58:34;;;;;;;8.80;5.30;;;;;;;16.81;54.31;100675.08;110519;1233;71663;-70
2023/04/24 08:01:03;;;;;;;14.40;5.20;;;;;;;16.93;54.10;100676.16;110417;1238;60747;-70
2023/04/24 08:03:32;;;;;;;8.80;5.10;;;;;;;17.06;53.35;100677.17;110376;1236;72950;-70
2023/04/24 08:06:01;;;;;;;11.10;5.20;;;;;;;17.16;52.95;100676.13;110397;1235;58266;-71
2023/04/24 08:08:30;;;;;;;10.30;4.80;;;;;;;17.24;52.67;100679.89;110450;1235;58392;-71
2023/04/24 08:10:59;;;;;;;8.60;4.70;;;;;;;17.13;51.80;100682.91;110377;1234;71734;-70
2023/04/24 08:13:28;;;;;;;10.10;5.40;;;;;;;17.27;52.16;100676.77;110403;1234;72689;-69
2023/04/24 08:15:57;;;;;;;9.10;5.10;;;;;;;17.15;51.64;100672.14;110447;1234;70202;-70
2023/04/24 08:18:26;;;;;;;11.10;5.10;;;;;;;16.92;52.07;100673.02;110419;1235;62793;-70
2023/04/24 08:21:01;;;;;;;10.20;4.90;;;;;;;16.78;52.11;100668.86;110280;1237;57797;-70
2023/04/24 08:23:30;;;;;;;8.40;4.70;;;;;;;16.79;51.79;100665.22;109992;1233;452493;-71
2023/04/24 08:25:59;;;;;;;11.20;4.40;;;;;;;16.95;51.35;100668.85;110349;1234;74090;-71
2023/04/24 08:28:28;;;;;;;10.20;4.90;;;;;;;17.10;51.31;100666.66;110323;1234;73350;-71
2023/04/24 08:30:57;;;;;;;11.20;4.70;;;;;;;17.17;51.06;100664.20;110461;1234;70875;-70
2023/04/24 08:33:25;;;;;;;11.00;4.80;;;;;;;17.31;51.96;100658.20;110313;1234;74154;-69
2023/04/24 08:35:54;;;;;;;11.80;5.70;;;;;;;17.53;51.19;100660.71;110390;1235;57743;-71
2023/04/24 08:38:24;;;;;;;15.70;5.00;;;;;;;17.81;50.91;100657.74;110318;1238;61258;-70
2023/04/24 08:40:53;;;;;;;11.60;4.60;;;;;;;18.01;50.04;100654.41;110452;1235;63745;-70
2023/04/24 08:43:23;;;;;;;9.70;4.50;;;;;;;17.82;48.64;100655.10;110355;1236;60982;-70
2023/04/24 08:45:55;;;;;;;7.20;4.60;;;;;;;17.82;48.70;100655.85;110234;1238;60004;-71
2023/04/24 08:48:25;;;;;;;11.80;4.90;;;;;;;18.02;49.15;100651.14;110464;1234;73818;-71
2023/04/24 08:50:59;;;;;;;9.90;4.70;;;;;;;18.09;48.26;100647.23;110363;1238;58319;-70
2023/04/24 08:53:30;;;;;;;9.70;4.60;;;;;;;18.21;48.25;100649.12;110394;1235;57805;-70
2023/04/24 08:56:01;;;;;;;8.10;4.10;;;;;;;18.33;48.22;100649.21;110414;1235;63748;-71
2023/04/24 08:58:31;;;;;;;6.80;3.20;;;;;;;18.53;46.73;100651.91;110214;1238;61678;-70
2023/04/24 09:01:01;;;;;;;11.00;4.30;;;;;;;18.76;44.78;100645.58;110317;1238;60808;-71
2023/04/24 09:03:31;;;;;;;6.90;4.30;;;;;;;18.85;43.60;100641.41;110292;1238;63264;-71
2023/04/24 09:06:02;;;;;;;26.10;5.20;;;;;;;18.69;44.00;100638.39;110316;1235;58183;-70
2023/04/24 09:08:32;;;;;;;15.10;5.10;;;;;;;18.89;44.30;100642.23;110409;1234;59099;-69
2023/04/24 09:11:03;;;;;;;11.10;4.00;;;;;;;18.95;44.07;100641.04;110428;1235;64122;-70
2023/04/24 09:13:33;;;;;;;15.20;4.70;;;;;;;18.97;43.91;100641.86;110272;1235;61681;-71
2023/04/24 09:16:02;;;;;;;5.80;3.00;;;;;;;18.86;44.15;100639.19;110058;1238;70533;-71
2023/04/24 09:18:31;;;;;;;11.60;4.10;;;;;;;18.83;44.47;100632.14;110223;1235;64076;-70
2023/04/24 09:21:03;;;;;;;6.10;3.70;;;;;;;19.03;44.05;100633.92;110117;1237;60522;-71
2023/04/24 09:23:32;;;;;;;9.70;4.50;;;;;;;19.00;43.57;100624.63;110206;1233;60962;-71
2023/04/24 09:26:06;;;;;;;11.10;4.70;;;;;;;18.99;44.35;100628.27;110115;1235;64497;-70
2023/04/24 09:28:40;;;;;;;10.90;4.30;;;;;;;19.02;43.26;100622.57;110081;1234;71464;-71
2023/04/24 09:31:17;;;;;;;8.10;4.10;;;;;;;19.09;43.17;100619.41;110240;1234;60538;-70
2023/04/24 09:34:07;;;;;;;14.30;4.60;;;;;;;19.14;43.07;100617.25;110217;1233;72953;-71
2023/04/24 09:36:43;;;;;;;12.10;4.40;;;;;;;19.32;42.41;100617.14;110144;1235;58375;-71
2023/04/24 09:39:15;;;;;;;15.30;4.20;;;;;;;19.28;42.97;100610.17;110174;1233;59816;-70
2023/04/24 09:41:51;;;;;;;7.70;4.30;;;;;;;19.39;42.99;100605.67;110144;1238;62973;-71
2023/04/24 09:44:22;;;;;;;10.40;4.10;;;;;;;19.43;42.72;100600.75;110219;1236;72501;-71
2023/04/24 09:46:57;;;;;;;13.90;4.30;;;;;;;19.70;42.07;100602.16;110281;1235;69112;-70
2023/04/24 09:49:29;;;;;;;7.10;4.20;;;;;;;19.73;41.72;100599.04;110396;1234;63329;-71
2023/04/24 09:52:11;;;;;;;9.60;4.00;;;;;;;19.80;42.09;100599.07;110291;1238;60479;-71
2023/04/24 09:54:40;;;;;;;9.40;4.20;;;;;;;19.68;42.16;100592.54;110200;1234;58548;-70
2023/04/24 09:57:09;;;;;;;8.60;4.10;;;;;;;19.80;42.37;100590.48;110412;1234;74336;-70
2023/04/24 09:59:46;;;;;;;6.70;3.30;;;;;;;19.72;42.01;100587.94;110436;1233;72511;-71
2023/04/24 10:02:20;;;;;;;14.00;4.80;;;;;;;19.93;41.33;100589.13;110250;1234;69995;-70
2023/04/24 10:04:58;;;;;;;14.70;5.40;;;;;;;19.93;41.83;100583.46;110254;1234;62296;-71
2023/04/24 10:07:28;;;;;;;11.20;5.00;;;;;;;19.84;41.54;100579.17;110195;1235;58195;-71
2023/04/24 10:09:58;;;;;;;13.70;5.50;;;;;;;20.05;41.89;100577.65;110344;1235;58257;-70
2023/04/24 10:12:28;;;;;;;9.30;4.60;;;;;;;20.01;41.22;100573.38;110331;1234;73626;-71
2023/04/24 10:14:58;;;;;;;7.60;4.50;;;;;;;19.57;41.77;100567.79;110326;1235;61439;-71
2023/04/24 10:17:28;;;;;;;8.80;4.90;;;;;;;19.54;42.47;100568.23;110318;1233;60000;-71
2023/04/24 10:19:59;;;;;;;10.40;4.40;;;;;;;19.94;40.80;100565.00;110420;1234;73808;-71
2023/04/24 10:22:30;;;;;;;15.90;5.30;;;;;;;20.06;40.55;100560.48;110424;1235;57810;-70
2023/04/24 10:24:59;;;;;;;9.70;4.50;;;;;;;19.86;41.19;100555.68;110161;1233;60463;-71
2023/04/24 10:27:30;;;;;;;9.90;4.70;;;;;;;19.50;42.17;100554.58;110325;1234;63351;-71
2023/04/24 10:30:00;;;;;;;10.30;4.40;;;;;;;19.42;42.13;100550.20;110206;1234;60884;-70
2023/04/24 10:32:29;;;;;;;7.70;4.50;;;;;;;19.22;42.38;100548.88;110308;1233;59378;-72
2023/04/24 10:34:58;;;;;;;9.50;4.90;;;;;;;19.45;41.99;100548.80;110277;1233;73130;-71
2023/04/24 10:37:28;;;;;;;8.60;4.60;;;;;;;19.63;41.63;100550.50;110415;1235;60852;-70
2023/04/24 10:39:57;;;;;;;9.60;5.00;;;;;;;19.87;41.11;100546.22;110423;1233;58241;-71
2023/04/24 10:42:28;;;;;;;9.50;4.70;;;;;;;19.69;40.76;100543.30;110409;1234;63926;-71
2023/04/24 10:44:57;;;;;;;6.70;4.30;;;;;;;19.90;40.33;100546.70;110184;1233;71442;-71
2023/04/24 10:47:27;;;;;;;11.20;4.60;;;;;;;20.24;40.12;100546.48;110447;1234;71005;-70
2023/04/24 10:49:59;;;;;;;8.30;4.40;;;;;;;20.17;39.95;100536.23;110309;1233;74293;-70
2023/04/24 10:52:45;;;;;;;7.60;4.10;;;;;;;20.15;39.92;100537.80;110285;1235;58262;-70
2023/04/24 10:55:15;;;;;;;8.20;4.40;;;;;;;20.62;38.92;100535.38;110412;1234;61137;-71
2023/04/24 10:58:04;;;;;;;10.40;4.30;;;;;;;19.82;39.89;100533.96;110407;1233;75587;-71
2023/04/24 11:00:37;;;;;;;9.20;4.60;;;;;;;19.89;39.56;100529.17;110295;1233;72497;-71
2023/04/24 11:03:24;;;;;;;10.40;3.90;;;;;;;19.88;39.33;100531.97;110274;1233;70126;-71
2023/04/24 11:06:06;;;;;;;9.20;5.00;;;;;;;19.60;39.75;100534.36;110171;1234;73852;-71
2023/04/24 11:08:43;;;;;;;12.00;4.40;;;;;;;19.75;39.45;100536.02;110303;1235;58202;-70
2023/04/24 11:11:17;;;;;;;8.40;4.30;;;;;;;20.17;38.81;100530.30;110209;1233;57775;-70
2023/04/24 11:13:55;;;;;;;8.50;3.90;;;;;;;20.59;37.88;100527.05;110207;1234;62963;-70
2023/04/24 11:16:41;;;;;;;7.90;3.70;;;;;;;20.56;37.62;100523.31;110210;1233;61733;-71
2023/04/24 11:19:18;;;;;;;15.20;4.90;;;;;;;19.79;38.37;100523.28;110316;1234;70243;-70
2023/04/24 11:21:54;;;;;;;8.40;4.50;;;;;;;19.88;38.47;100519.25;110383;1234;63531;-71
2023/04/24 11:24:31;;;;;;;10.60;4.30;;;;;;;20.48;37.50;100522.78;110340;1236;60509;-70
2023/04/24 11:27:07;;;;;;;8.00;3.90;;;;;;;19.99;37.84;100518.63;110441;1233;61661;-71